createdAt,value
2023-01-13T00:00:02.487Z,30.02
2023-01-13T00:01:22.738Z,28.25
2023-01-13T00:02:28.504Z,26.42
2023-01-13T00:03:33.183Z,32.13
2023-01-13T00:04:37.028Z,27.17
2023-01-13T00:05:40.356Z,27.70
2023-01-13T00:06:55.174Z,29.42
2023-01-13T00:09:21.596Z,30.48
2023-01-13T00:10:49.701Z,24.38
2023-01-13T00:11:58.723Z,29.30
2023-01-13T00:13:09.048Z,30.33
2023-01-13T00:14:14.714Z,29.77
2023-01-13T00:15:23.288Z,28.13
2023-01-13T00:16:45.189Z,28.02
2023-01-13T00:17:53.316Z,27.05
2023-01-13T00:19:01.704Z,29.90
2023-01-13T00:20:07.990Z,29.02
2023-01-13T00:21:25.807Z,27.75
2023-01-13T00:22:32.574Z,28.00
2023-01-13T00:23:44.574Z,25.70
2023-01-13T00:24:48.430Z,25.20
2023-01-13T00:25:59.128Z,26.52
2023-01-13T00:27:04.554Z,26.13
2023-01-13T00:28:10.429Z,26.77
2023-01-13T00:29:25.383Z,29.83
2023-01-13T00:30:30.493Z,28.27
2023-01-13T00:31:39.481Z,27.42
2023-01-13T00:32:49.294Z,24.50
2023-01-13T00:33:59.969Z,24.15
2023-01-13T00:35:05.485Z,26.67
2023-01-13T00:36:11.891Z,28.20
2023-01-13T00:37:19.239Z,28.70
2023-01-13T00:39:12.670Z,23.50
2023-01-13T00:40:25.874Z,27.80
2023-01-13T00:41:32.624Z,23.63
2023-01-13T00:44:11.899Z,26.20
2023-01-13T00:45:23.300Z,27.67
2023-01-13T00:46:34.851Z,26.95
2023-01-13T00:47:48.024Z,25.65
2023-01-13T00:48:54.368Z,24.80
2023-01-13T00:50:00.048Z,25.83
2023-01-13T00:51:12.657Z,27.05
2023-01-13T00:52:17.565Z,25.27
2023-01-13T00:53:26.173Z,26.65
2023-01-13T00:54:35.043Z,30.00
2023-01-13T00:55:42.505Z,25.70
2023-01-13T00:56:48.489Z,26.65
2023-01-13T00:57:54.356Z,25.80
2023-01-13T00:59:03.921Z,32.08
2023-01-13T01:00:14.535Z,26.55
2023-01-13T01:01:28.164Z,25.52
2023-01-13T01:02:36.027Z,28.40
2023-01-13T01:03:41.071Z,26.00
2023-01-13T01:04:51.197Z,22.73
2023-01-13T01:06:05.639Z,26.65
2023-01-13T01:07:11.512Z,26.17
2023-01-13T01:08:17.935Z,26.92
2023-01-13T01:09:33.797Z,25.10
2023-01-13T01:10:38.366Z,27.98
2023-01-13T01:11:47.266Z,24.65
2023-01-13T01:12:52.565Z,27.08
2023-01-13T01:14:02.956Z,26.75
2023-01-13T01:15:10.339Z,26.00
2023-01-13T01:16:23.081Z,26.83
2023-01-13T01:17:34.284Z,25.48
2023-01-13T01:18:44.952Z,25.42
2023-01-13T01:19:54.438Z,24.10
2023-01-13T01:21:11.607Z,23.40
2023-01-13T01:22:16.237Z,25.63
2023-01-13T01:23:21.134Z,28.10
2023-01-13T01:24:33.652Z,28.48
2023-01-13T01:25:44.113Z,26.05
2023-01-13T01:26:51.016Z,29.42
2023-01-13T01:28:02.328Z,27.85
2023-01-13T01:29:08.276Z,30.35
2023-01-13T01:30:18.342Z,25.98
2023-01-13T01:31:37.756Z,29.70
2023-01-13T01:32:47.205Z,24.27
2023-01-13T01:34:01.629Z,28.63
2023-01-13T01:35:21.811Z,28.27
2023-01-13T01:36:45.179Z,23.92
2023-01-13T01:37:50.885Z,26.33
2023-01-13T01:39:03.468Z,25.55
2023-01-13T01:40:13.303Z,24.23
2023-01-13T01:41:27.075Z,28.15
2023-01-13T01:42:49.765Z,26.88
2023-01-13T01:43:59.868Z,25.85
2023-01-13T01:45:38.210Z,28.05
2023-01-13T01:46:49.631Z,26.75
2023-01-13T01:48:14.930Z,24.73
2023-01-13T01:49:35.069Z,26.70
2023-01-13T01:50:41.431Z,27.27
2023-01-13T01:52:11.227Z,27.63
2023-01-13T01:53:36.774Z,24.50
2023-01-13T01:55:26.711Z,24.63
2023-01-13T01:56:38.188Z,20.50
2023-01-13T01:58:24.243Z,27.15
2023-01-13T01:59:36.221Z,25.25
2023-01-13T02:00:46.575Z,26.60
2023-01-13T02:01:54.799Z,28.10
2023-01-13T02:03:14.624Z,25.77
2023-01-13T02:04:33.513Z,21.88
2023-01-13T02:05:42.542Z,27.48
2023-01-13T02:06:48.213Z,28.98
2023-01-13T02:08:04.632Z,30.02
2023-01-13T02:09:14.864Z,25.33
2023-01-13T02:10:30.462Z,26.15
2023-01-13T02:11:56.925Z,24.65
2023-01-13T02:13:07.524Z,26.58
2023-01-13T02:14:11.330Z,27.98
2023-01-13T02:16:00.767Z,25.50
2023-01-13T02:17:34.323Z,24.85
2023-01-13T02:18:57.841Z,26.70
2023-01-13T02:20:18.647Z,27.02
2023-01-13T02:21:57.627Z,28.52
2023-01-13T02:23:46.369Z,22.33
2023-01-13T02:25:43.157Z,23.55
2023-01-13T02:27:18.691Z,24.67
2023-01-13T02:29:12.620Z,25.15
2023-01-13T02:30:58.658Z,25.13
2023-01-13T02:32:27.041Z,25.42
2023-01-13T02:34:02.931Z,26.02
2023-01-13T02:35:31.258Z,32.03
2023-01-13T02:37:02.959Z,23.33
2023-01-13T02:38:17.229Z,31.05
2023-01-13T02:39:45.267Z,29.05
2023-01-13T02:41:27.142Z,29.23
2023-01-13T02:43:10.039Z,28.60
2023-01-13T02:44:25.309Z,25.17
2023-01-13T02:45:44.928Z,24.95
2023-01-13T02:47:17.524Z,28.17
2023-01-13T02:48:30.875Z,23.10
2023-01-13T02:49:41.428Z,23.40
2023-01-13T02:50:55.841Z,26.23
2023-01-13T02:52:09.132Z,30.23
2023-01-13T02:53:25.531Z,23.05
2023-01-13T02:54:43.605Z,24.27
2023-01-13T02:56:05.909Z,26.05
2023-01-13T02:57:19.865Z,26.52
2023-01-13T02:58:28.806Z,26.55
2023-01-13T02:59:57.113Z,23.58
2023-01-13T03:01:03.918Z,23.48
2023-01-13T03:02:19.032Z,27.23
2023-01-13T03:03:30.687Z,24.40
2023-01-13T03:04:58.265Z,24.27
2023-01-13T03:06:30.434Z,22.45
2023-01-13T03:08:10.382Z,23.27
2023-01-13T03:09:29.633Z,23.17
2023-01-13T03:11:03.057Z,25.13
2023-01-13T03:12:44.689Z,24.98
2023-01-13T03:14:04.701Z,20.08
2023-01-13T03:15:31.029Z,22.05
2023-01-13T03:16:49.684Z,24.48
2023-01-13T03:18:46.944Z,23.85
2023-01-13T03:20:08.451Z,23.70
2023-01-13T03:21:32.131Z,22.15
2023-01-13T03:23:03.384Z,24.05
2023-01-13T03:24:38.860Z,20.98
2023-01-13T03:25:54.498Z,22.85
2023-01-13T03:27:12.579Z,24.60
2023-01-13T03:28:35.341Z,24.63
2023-01-13T03:29:49.477Z,25.80
2023-01-13T03:31:06.089Z,25.20
2023-01-13T03:32:46.196Z,22.02
2023-01-13T03:34:02.128Z,25.77
2023-01-13T03:36:43.997Z,23.58
2023-01-13T03:38:08.999Z,19.95
2023-01-13T03:39:27.210Z,20.65
2023-01-13T03:40:39.229Z,20.63
2023-01-13T03:41:50.647Z,19.27
2023-01-13T03:43:23.498Z,23.85
2023-01-13T03:44:42.574Z,21.05
2023-01-13T03:45:52.366Z,19.38
2023-01-13T03:47:00.897Z,23.73
2023-01-13T03:48:10.366Z,21.90
2023-01-13T03:49:19.892Z,17.67
2023-01-13T03:50:32.428Z,18.73
2023-01-13T03:51:40.845Z,21.13
2023-01-13T03:53:07.724Z,20.25
2023-01-13T03:54:24.462Z,18.52
2023-01-13T03:55:40.508Z,20.98
2023-01-13T03:56:57.879Z,18.63
2023-01-13T03:58:16.380Z,21.90
2023-01-13T03:59:25.330Z,18.83
2023-01-13T04:00:38.908Z,18.65
2023-01-13T04:02:20.845Z,17.33
2023-01-13T04:03:53.073Z,23.73
2023-01-13T04:05:06.200Z,19.60
2023-01-13T04:06:46.127Z,16.85
2023-01-13T04:08:05.523Z,19.42
2023-01-13T04:09:22.998Z,18.98
2023-01-13T04:10:43.677Z,18.17
2023-01-13T04:11:58.267Z,16.85
2023-01-13T04:13:15.517Z,16.73
2023-01-13T04:14:24.643Z,18.90
2023-01-13T04:15:41.367Z,15.85
2023-01-13T04:16:51.488Z,18.10
2023-01-13T04:18:05.121Z,19.40
2023-01-13T04:19:18.727Z,19.00
2023-01-13T04:20:25.524Z,17.30
2023-01-13T04:21:34.967Z,19.58
2023-01-13T04:22:46.961Z,16.65
2023-01-13T04:24:21.052Z,20.83
2023-01-13T04:25:30.194Z,18.02
2023-01-13T04:26:39.196Z,17.08
2023-01-13T04:27:45.330Z,17.40
2023-01-13T04:28:55.523Z,21.40
2023-01-13T04:30:03.425Z,16.20
2023-01-13T04:31:10.196Z,19.90
2023-01-13T04:32:18.980Z,19.15
2023-01-13T04:33:29.561Z,18.42
2023-01-13T04:34:32.718Z,25.20
2023-01-13T04:35:40.044Z,18.20
2023-01-13T04:36:45.895Z,21.38
2023-01-13T04:37:52.983Z,19.30
2023-01-13T04:38:56.365Z,19.85
2023-01-13T04:40:09.901Z,19.15
2023-01-13T04:41:16.462Z,18.60
2023-01-13T04:42:23.734Z,24.30
2023-01-13T04:43:34.533Z,20.30
2023-01-13T04:44:41.317Z,20.50
2023-01-13T04:45:47.844Z,20.10
2023-01-13T04:46:52.208Z,17.83
2023-01-13T04:47:57.389Z,19.88
2023-01-13T04:49:01.305Z,19.58
2023-01-13T04:50:09.008Z,19.63
2023-01-13T04:51:17.409Z,18.15
2023-01-13T04:52:25.027Z,16.10
2023-01-13T04:53:32.102Z,17.38
2023-01-13T04:54:40.125Z,17.15
2023-01-13T04:55:50.864Z,20.17
2023-01-13T04:57:08.617Z,20.75
2023-01-13T04:58:15.758Z,18.42
2023-01-13T04:59:25.359Z,19.90
2023-01-13T05:00:47.033Z,18.23
2023-01-13T05:01:50.947Z,21.98
2023-01-13T05:02:58.049Z,17.90
2023-01-13T05:04:12.913Z,17.40
2023-01-13T05:05:22.730Z,18.35
2023-01-13T05:06:38.833Z,19.58
2023-01-13T05:07:45.341Z,18.73
2023-01-13T05:08:55.639Z,22.48
2023-01-13T05:09:59.327Z,21.13
2023-01-13T05:11:33.322Z,19.98
2023-01-13T05:13:00.181Z,22.30
2023-01-13T05:14:24.815Z,19.13
2023-01-13T05:15:59.547Z,18.70
2023-01-13T05:17:15.785Z,19.42
2023-01-13T05:18:27.212Z,17.17
2023-01-13T05:19:42.067Z,23.25
2023-01-13T05:20:53.926Z,23.20
2023-01-13T05:22:20.162Z,20.00
2023-01-13T05:23:48.333Z,19.17
2023-01-13T05:25:15.293Z,22.85
2023-01-13T05:26:20.405Z,24.17
2023-01-13T05:27:27.703Z,19.23
2023-01-13T05:28:36.331Z,18.48
2023-01-13T05:30:51.240Z,17.38
2023-01-13T05:31:58.011Z,16.42
2023-01-13T05:33:19.089Z,19.52
2023-01-13T05:34:27.508Z,19.77
2023-01-13T05:35:42.713Z,19.95
2023-01-13T05:36:50.198Z,17.83
2023-01-13T05:37:59.410Z,19.25
2023-01-13T05:39:53.403Z,18.60
2023-01-13T05:41:20.787Z,18.08
2023-01-13T05:42:43.452Z,21.17
2023-01-13T05:43:55.918Z,18.45
2023-01-13T05:45:03.319Z,17.90
2023-01-13T05:46:13.455Z,16.35
2023-01-13T05:47:23.266Z,21.33
2023-01-13T05:48:37.839Z,17.38
2023-01-13T05:49:42.317Z,20.17
2023-01-13T05:50:51.198Z,21.45
2023-01-13T05:51:55.258Z,20.00
2023-01-13T05:53:02.286Z,15.88
2023-01-13T05:54:10.978Z,18.38
2023-01-13T05:55:22.002Z,19.75
2023-01-13T05:56:27.278Z,19.35
2023-01-13T05:57:31.595Z,17.02
2023-01-13T05:58:36.062Z,17.23
2023-01-13T05:59:40.672Z,17.05
2023-01-13T06:00:53.767Z,22.75
2023-01-13T06:02:00.128Z,18.38
2023-01-13T06:03:06.885Z,21.50
2023-01-13T06:04:10.225Z,18.27
2023-01-13T06:05:19.796Z,22.25
2023-01-13T06:06:29.522Z,24.58
2023-01-13T06:07:36.848Z,17.33
2023-01-13T06:09:07.713Z,23.75
2023-01-13T06:10:10.694Z,19.77
2023-01-13T06:11:17.824Z,24.77
2023-01-13T06:12:24.024Z,22.63
2023-01-13T06:13:37.843Z,27.10
2023-01-13T06:14:53.342Z,19.77
2023-01-13T06:16:07.143Z,21.77
2023-01-13T06:17:19.906Z,17.60
2023-01-13T06:18:38.358Z,21.15
2023-01-13T06:21:19.802Z,16.38
2023-01-13T06:22:58.868Z,18.13
2023-01-13T06:26:25.038Z,18.65
2023-01-13T06:27:37.121Z,16.65
2023-01-13T06:28:44.571Z,16.42
2023-01-13T06:29:49.585Z,16.95
2023-01-13T06:31:00.423Z,17.05
2023-01-13T06:32:42.339Z,18.60
2023-01-13T06:35:23.126Z,15.52
2023-01-13T08:11:09.056Z,14.40
2023-01-13T08:12:30.928Z,14.48
2023-01-13T08:15:19.468Z,13.50
2023-01-13T08:17:02.152Z,16.60
2023-01-13T08:18:08.010Z,13.15
2023-01-13T08:19:39.619Z,13.52
2023-01-13T08:20:57.327Z,14.32
2023-01-13T08:22:37.158Z,13.48
2023-01-13T08:23:52.289Z,11.93
2023-01-13T08:25:16.494Z,12.43
2023-01-13T08:26:28.942Z,12.70
2023-01-13T08:27:35.464Z,12.57
2023-01-13T08:28:49.083Z,13.07
2023-01-13T08:30:10.739Z,13.40
2023-01-13T08:31:27.350Z,12.82
2023-01-13T08:35:04.736Z,13.75
2023-01-13T08:41:20.424Z,12.50
2023-01-13T09:01:33.348Z,14.07
2023-01-13T09:04:42.236Z,14.25
2023-01-13T09:05:56.197Z,14.23
2023-01-13T09:08:48.082Z,10.85
2023-01-13T09:11:59.479Z,14.68
2023-01-13T09:13:14.959Z,19.50
2023-01-13T09:14:22.843Z,11.93
2023-01-13T09:15:25.909Z,13.10
2023-01-13T09:16:28.577Z,13.65
2023-01-13T09:17:31.268Z,15.77
2023-01-13T09:18:33.802Z,13.35
2023-01-13T09:19:37.143Z,10.48
2023-01-13T09:20:44.744Z,13.32
2023-01-13T09:21:47.595Z,11.20
2023-01-13T09:22:51.528Z,10.80
2023-01-13T09:23:57.462Z,11.55
2023-01-13T09:25:04.764Z,16.58
2023-01-13T09:26:10.429Z,12.52
2023-01-13T09:27:16.206Z,11.30
2023-01-13T09:28:22.595Z,11.88
2023-01-13T09:29:27.964Z,14.15
2023-01-13T09:30:32.779Z,12.40
2023-01-13T09:31:36.110Z,16.33
2023-01-13T09:32:51.471Z,12.70
2023-01-13T09:36:32.448Z,13.35
2023-01-13T09:37:43.751Z,11.32
2023-01-13T09:38:51.821Z,13.25
2023-01-13T09:40:02.314Z,13.48
2023-01-13T09:41:45.575Z,17.00
2023-01-13T09:43:48.814Z,13.52
2023-01-13T09:45:19.117Z,14.25
2023-01-13T09:46:58.581Z,14.10
2023-01-13T09:48:53.682Z,11.10
2023-01-13T09:50:17.334Z,16.25
2023-01-13T09:53:13.429Z,11.57
2023-01-13T10:14:32.960Z,11.65
2023-01-13T10:51:14.531Z,14.88
2023-01-13T10:57:03.969Z,15.80
2023-01-13T11:16:08.437Z,21.77
2023-01-13T12:15:37.623Z,16.25
2023-01-13T12:27:12.965Z,18.63
2023-01-13T12:30:04.174Z,15.85
2023-01-13T12:32:07.210Z,16.02
2023-01-13T12:37:59.714Z,17.15
2023-01-13T12:40:00.176Z,16.65
2023-01-13T12:42:28.503Z,23.10
2023-01-13T12:45:52.238Z,17.25
2023-01-13T12:47:58.211Z,20.33
2023-01-13T12:49:54.195Z,16.05
2023-01-13T12:59:23.755Z,23.17
2023-01-13T13:48:28.095Z,18.60
2023-01-13T13:50:07.665Z,19.85
2023-01-13T13:51:28.481Z,19.88
2023-01-13T13:53:02.226Z,20.40
2023-01-13T13:54:22.414Z,18.70
2023-01-13T13:57:48.904Z,22.83
2023-01-13T13:59:26.538Z,19.60
2023-01-13T14:01:05.553Z,18.30
2023-01-13T14:02:36.996Z,22.52
2023-01-13T14:04:05.590Z,20.08
2023-01-13T14:05:37.139Z,19.48
2023-01-13T14:06:54.750Z,21.48
2023-01-13T14:10:04.042Z,23.23
2023-01-13T14:11:57.941Z,19.20
2023-01-13T14:13:18.157Z,22.70
2023-01-13T14:14:33.268Z,22.08
2023-01-13T14:16:58.917Z,19.38
2023-01-13T14:18:20.083Z,18.73
2023-01-13T14:19:35.981Z,35.35
2023-01-13T14:20:42.252Z,19.95
2023-01-13T14:21:52.168Z,19.90
2023-01-13T14:23:04.684Z,19.65
2023-01-13T14:24:20.716Z,24.90
2023-01-13T14:25:50.983Z,24.48
2023-01-13T14:27:22.869Z,21.55
2023-01-13T14:28:44.669Z,25.30
2023-01-13T14:30:05.036Z,24.25
2023-01-13T14:31:19.611Z,23.67
2023-01-13T14:32:36.892Z,23.08
2023-01-13T14:33:46.512Z,24.63
2023-01-13T14:35:12.767Z,22.33
2023-01-13T14:36:44.581Z,23.23
2023-01-13T14:38:05.865Z,20.00
2023-01-13T14:39:44.230Z,21.80
2023-01-13T14:42:49.094Z,18.42
2023-01-13T14:44:21.583Z,18.00
2023-01-13T14:47:10.087Z,21.08
2023-01-13T14:50:13.221Z,22.23
2023-01-13T14:52:07.478Z,20.63
2023-01-13T15:00:26.839Z,21.35
2023-01-13T15:09:55.281Z,21.25
2023-01-13T15:16:14.831Z,42.72
2023-01-13T15:21:43.205Z,29.60
2023-01-13T18:02:26.944Z,24.40
2023-01-13T18:05:22.917Z,31.45
2023-01-13T18:06:27.800Z,25.45
2023-01-13T18:07:38.834Z,23.67
2023-01-13T18:08:43.377Z,25.80
2023-01-13T18:13:31.173Z,21.77
2023-01-13T18:14:46.349Z,27.80
2023-01-13T18:16:19.133Z,24.92
2023-01-13T18:17:59.242Z,22.53
2023-01-13T18:19:42.970Z,27.80
2023-01-13T18:22:50.409Z,24.23
2023-01-13T18:29:27.523Z,25.60
2023-01-13T18:30:36.938Z,26.58
2023-01-13T18:31:47.822Z,27.42
2023-01-13T18:35:01.669Z,25.35
2023-01-13T18:36:13.127Z,25.35
2023-01-13T18:37:22.778Z,26.48
2023-01-13T18:38:27.220Z,29.45
2023-01-13T18:39:43.018Z,26.33
2023-01-13T18:47:24.195Z,22.65
2023-01-13T18:48:32.087Z,26.92
2023-01-13T18:49:37.905Z,26.27
2023-01-13T18:50:42.527Z,28.95
2023-01-13T18:51:51.558Z,25.23
2023-01-13T18:53:02.712Z,24.75
2023-01-13T18:54:07.705Z,22.88
2023-01-13T18:55:11.798Z,25.65
2023-01-13T18:56:16.500Z,27.17
2023-01-13T18:57:21.858Z,39.35
2023-01-13T18:58:38.502Z,24.10
2023-01-13T18:59:44.147Z,32.17
2023-01-13T19:00:47.611Z,25.52
2023-01-13T19:01:52.634Z,25.00
2023-01-13T19:04:23.049Z,24.83
2023-01-13T19:05:41.409Z,26.65
2023-01-13T19:06:53.946Z,24.05
2023-01-13T19:08:00.029Z,32.28
2023-01-13T19:09:11.725Z,24.38
2023-01-13T19:10:18.221Z,25.35
2023-01-13T19:11:26.399Z,23.92
2023-01-13T19:12:36.197Z,25.58
2023-01-13T19:13:45.030Z,23.52
2023-01-13T19:14:52.833Z,23.33
2023-01-13T19:15:58.090Z,23.92
2023-01-13T19:17:19.109Z,23.80
2023-01-13T19:18:27.205Z,23.05
2023-01-13T19:19:32.649Z,25.33
2023-01-13T19:20:42.947Z,27.38
2023-01-13T19:21:49.208Z,27.17
2023-01-13T19:23:00.256Z,24.90
2023-01-13T19:24:13.193Z,23.92
2023-01-13T19:25:19.705Z,23.65
2023-01-13T19:28:22.896Z,26.88
2023-01-13T19:29:27.381Z,24.65
2023-01-13T19:30:31.119Z,24.40
2023-01-13T19:31:37.483Z,26.25
2023-01-13T19:32:43.988Z,22.45
2023-01-13T19:33:48.169Z,21.63
2023-01-13T19:34:55.325Z,28.70
2023-01-13T19:35:59.345Z,26.00
2023-01-13T19:37:07.017Z,24.42
2023-01-13T19:38:10.910Z,26.52
2023-01-13T19:39:14.508Z,23.30
2023-01-13T19:40:20.402Z,53.33
2023-01-13T19:41:41.961Z,24.85
2023-01-13T19:43:04.289Z,24.48
2023-01-13T19:44:30.248Z,27.15
2023-01-13T19:45:35.798Z,25.55
2023-01-13T19:46:42.406Z,24.08
2023-01-13T19:49:13.233Z,23.35
2023-01-13T19:50:20.774Z,25.88
2023-01-13T19:51:31.809Z,23.15
2023-01-13T19:52:36.492Z,21.50
2023-01-13T19:53:42.864Z,24.52
2023-01-13T19:54:50.767Z,22.23
2023-01-13T19:56:00.373Z,24.10
2023-01-13T19:57:07.808Z,25.17
2023-01-13T19:58:11.051Z,22.02
2023-01-13T19:59:24.675Z,24.73
2023-01-13T20:00:46.338Z,29.00
2023-01-13T20:02:53.284Z,25.20
2023-01-13T20:04:03.625Z,23.38
2023-01-13T20:05:09.922Z,26.95
2023-01-13T20:06:15.560Z,25.02
2023-01-13T20:07:22.733Z,26.00
2023-01-13T20:08:25.812Z,30.58
2023-01-13T20:09:36.577Z,21.40
2023-01-13T20:10:40.984Z,25.55
2023-01-13T20:11:45.273Z,22.35
2023-01-13T20:12:52.373Z,28.00
2023-01-13T20:14:05.345Z,23.90
2023-01-13T20:15:09.614Z,22.67
2023-01-13T20:16:18.784Z,24.33
2023-01-13T20:17:30.701Z,28.25
2023-01-13T20:18:41.903Z,25.38
2023-01-13T20:19:48.018Z,25.85
2023-01-13T20:20:54.456Z,23.77
2023-01-13T20:21:59.314Z,24.02
2023-01-13T20:23:08.510Z,25.50
2023-01-13T20:24:37.112Z,28.05
2023-01-13T20:25:46.191Z,21.42
2023-01-13T20:26:57.299Z,23.10
2023-01-13T20:28:09.224Z,26.17
2023-01-13T20:29:15.779Z,24.98
2023-01-13T20:30:26.488Z,26.45
2023-01-13T20:31:33.144Z,24.00
2023-01-13T20:32:39.152Z,26.83
2023-01-13T20:33:44.823Z,24.23
2023-01-13T20:34:55.980Z,23.20
2023-01-13T20:36:00.531Z,25.92
2023-01-13T20:37:06.500Z,26.73
2023-01-13T20:38:10.960Z,23.75
2023-01-13T20:39:25.235Z,25.35
2023-01-13T20:40:30.726Z,22.35
2023-01-13T20:41:53.005Z,23.67
2023-01-13T20:42:59.345Z,20.88
2023-01-13T20:44:03.976Z,23.27
2023-01-13T20:45:08.386Z,29.77
2023-01-13T20:46:21.106Z,27.50
2023-01-13T20:47:31.469Z,24.50
2023-01-13T20:48:37.165Z,25.60
2023-01-13T20:49:50.879Z,22.23
2023-01-13T20:51:02.124Z,24.67
2023-01-13T20:52:10.916Z,25.80
2023-01-13T20:53:15.152Z,24.40
2023-01-13T20:54:26.914Z,27.45
2023-01-13T20:55:30.252Z,28.67
2023-01-13T20:56:35.050Z,29.25
2023-01-13T20:57:58.185Z,29.25
2023-01-13T20:59:02.791Z,27.40
2023-01-13T21:00:15.469Z,28.63
2023-01-13T21:01:19.798Z,28.98
2023-01-13T21:02:24.910Z,26.15
2023-01-13T21:03:28.426Z,24.67
2023-01-13T21:04:34.478Z,25.85
2023-01-13T21:05:38.997Z,29.33
2023-01-13T21:06:43.794Z,26.42
2023-01-13T21:07:48.499Z,27.02
2023-01-13T21:08:56.093Z,32.83
2023-01-13T21:09:59.192Z,29.45
2023-01-13T21:11:08.798Z,27.65
2023-01-13T21:12:35.065Z,29.80
2023-01-13T21:13:59.169Z,31.95
2023-01-13T21:15:25.694Z,27.13
2023-01-13T21:16:31.185Z,30.35
2023-01-13T21:17:57.624Z,29.30
2023-01-13T21:19:11.710Z,31.40
2023-01-13T21:20:19.115Z,35.63
2023-01-13T21:21:22.960Z,32.83
2023-01-13T21:22:31.862Z,32.92
2023-01-13T21:23:39.675Z,25.55
2023-01-13T21:24:47.517Z,30.08
2023-01-13T21:25:53.986Z,29.13
2023-01-13T21:27:01.024Z,28.75
2023-01-13T21:28:08.026Z,30.33
2023-01-13T21:29:13.429Z,30.95
2023-01-13T21:30:18.208Z,27.95
2023-01-13T21:31:21.578Z,26.38
2023-01-13T21:32:25.382Z,30.98
2023-01-13T21:33:32.081Z,27.58
2023-01-13T21:34:35.707Z,29.58
2023-01-13T21:35:41.869Z,29.45
2023-01-13T21:36:46.038Z,30.58
2023-01-13T21:37:52.154Z,28.00
2023-01-13T21:39:00.568Z,30.17
2023-01-13T21:40:07.378Z,26.63
2023-01-13T21:41:14.595Z,28.30
2023-01-13T21:42:37.888Z,32.50
2023-01-13T21:43:59.621Z,26.10
2023-01-13T21:45:27.152Z,25.55
2023-01-13T21:46:49.021Z,27.48
2023-01-13T21:47:52.724Z,28.13
2023-01-13T21:48:57.197Z,29.60
2023-01-13T21:50:02.935Z,26.65
2023-01-13T21:51:11.090Z,30.33
2023-01-13T21:52:19.280Z,27.67
2023-01-13T21:53:23.200Z,28.48
2023-01-13T21:54:27.113Z,26.70
2023-01-13T21:55:30.766Z,32.28
2023-01-13T21:56:36.089Z,28.13
2023-01-13T21:57:40.328Z,31.75
2023-01-13T21:58:46.212Z,29.95
2023-01-13T21:59:57.671Z,31.98
2023-01-13T22:01:04.834Z,34.38
2023-01-13T22:02:31.301Z,34.30
2023-01-13T22:03:54.327Z,30.58
2023-01-13T22:05:04.829Z,29.70
2023-01-13T22:06:08.332Z,29.88
2023-01-13T22:07:12.220Z,28.30
2023-01-13T22:08:19.140Z,28.60
2023-01-13T22:09:22.091Z,25.08
2023-01-13T22:10:30.067Z,29.23
2023-01-13T22:11:37.271Z,26.30
2023-01-13T22:12:44.137Z,30.80
2023-01-13T22:14:05.540Z,29.30
2023-01-13T22:15:12.133Z,26.42
2023-01-13T22:16:18.384Z,29.45
2023-01-13T22:17:29.848Z,34.85
2023-01-13T22:18:35.094Z,35.22
2023-01-13T22:19:42.362Z,31.48
2023-01-13T22:20:49.028Z,38.58
2023-01-13T22:21:53.547Z,31.33
2023-01-13T22:22:59.767Z,31.15
2023-01-13T22:24:07.851Z,36.38
2023-01-13T22:25:15.410Z,35.97
2023-01-13T22:26:21.475Z,30.80
2023-01-13T22:27:30.508Z,33.22
2023-01-13T22:28:41.021Z,35.10
2023-01-13T22:29:45.372Z,32.50
2023-01-13T22:30:55.660Z,31.92
2023-01-13T22:32:05.277Z,30.40
2023-01-13T22:33:08.136Z,31.98
2023-01-13T22:34:14.275Z,34.67
2023-01-13T22:35:21.491Z,30.23
2023-01-13T22:36:25.961Z,29.50
2023-01-13T22:37:31.724Z,30.85
2023-01-13T22:38:35.300Z,32.47
2023-01-13T22:39:41.780Z,30.08
2023-01-13T22:40:46.124Z,31.13
2023-01-13T22:41:54.924Z,33.17
2023-01-13T22:42:59.027Z,31.65
2023-01-13T22:44:10.291Z,32.42
2023-01-13T22:45:17.235Z,30.00
2023-01-13T22:46:30.124Z,31.42
2023-01-13T22:47:34.143Z,34.53
2023-01-13T22:48:41.122Z,29.95
2023-01-13T22:50:06.626Z,27.98
2023-01-13T22:51:21.621Z,32.22
2023-01-13T22:52:29.260Z,30.70
2023-01-13T22:53:34.900Z,26.77
2023-01-13T22:54:47.310Z,29.58
2023-01-13T22:56:05.465Z,27.98
2023-01-13T22:57:11.054Z,30.13
2023-01-13T22:58:16.294Z,33.25
2023-01-13T22:59:22.880Z,24.70
2023-01-13T23:00:27.382Z,21.67
2023-01-13T23:01:33.499Z,27.08
2023-01-13T23:02:39.980Z,29.02
2023-01-13T23:03:46.819Z,26.15
2023-01-13T23:04:50.934Z,36.83
2023-01-13T23:05:59.373Z,31.58
2023-01-13T23:07:05.717Z,29.92
2023-01-13T23:08:10.560Z,35.20
2023-01-13T23:09:16.056Z,32.20
2023-01-13T23:10:21.581Z,30.13
2023-01-13T23:11:28.463Z,29.10
2023-01-13T23:12:31.951Z,30.27
2023-01-13T23:13:40.426Z,28.23
2023-01-13T23:14:45.162Z,30.65
2023-01-13T23:15:53.252Z,34.53
2023-01-13T23:16:58.220Z,29.00
2023-01-13T23:18:03.365Z,28.42
2023-01-13T23:19:09.345Z,26.58
2023-01-13T23:20:12.825Z,27.20
2023-01-13T23:21:24.755Z,40.05
2023-01-13T23:22:31.655Z,26.88
2023-01-13T23:23:42.250Z,30.25
2023-01-13T23:24:50.640Z,36.03
2023-01-13T23:26:00.300Z,24.40
2023-01-13T23:27:36.759Z,32.45
2023-01-13T23:28:40.378Z,29.30
2023-01-13T23:29:44.670Z,33.88
2023-01-13T23:30:53.525Z,31.90
2023-01-13T23:32:03.266Z,36.25
2023-01-13T23:33:06.460Z,34.28
2023-01-13T23:34:13.249Z,34.03
2023-01-13T23:35:20.947Z,30.42
2023-01-13T23:36:29.259Z,28.73
2023-01-13T23:37:32.885Z,30.67
2023-01-13T23:38:36.381Z,31.75
2023-01-13T23:39:40.157Z,35.40
2023-01-13T23:40:48.014Z,34.95
2023-01-13T23:41:52.210Z,34.67
2023-01-13T23:43:01.179Z,36.17
2023-01-13T23:44:09.629Z,41.42
2023-01-13T23:45:13.481Z,34.95
2023-01-13T23:46:18.498Z,40.97
2023-01-13T23:47:25.137Z,33.85
2023-01-13T23:48:33.172Z,45.72
2023-01-13T23:49:36.811Z,32.65
2023-01-13T23:50:43.767Z,39.25
2023-01-13T23:51:50.070Z,35.70
2023-01-13T23:52:53.758Z,32.70
2023-01-13T23:53:59.019Z,32.22
2023-01-13T23:55:08.870Z,36.83
2023-01-13T23:56:21.022Z,34.00
2023-01-13T23:57:29.176Z,32.35
2023-01-13T23:58:34.317Z,33.28
2023-01-13T23:59:38.725Z,30.90
